createdAt,value
2023-05-10T00:00:30.259Z,89.75
2023-05-10T00:02:57.900Z,89.93
2023-05-10T00:05:25.768Z,90.16
2023-05-10T00:07:53.362Z,90.15
2023-05-10T00:10:20.965Z,90.60
2023-05-10T00:12:48.583Z,90.98
2023-05-10T00:15:16.331Z,91.63
2023-05-10T00:17:44.051Z,91.37
2023-05-10T00:20:12.184Z,91.61
2023-05-10T00:22:39.812Z,91.92
2023-05-10T00:25:08.290Z,92.33
2023-05-10T00:27:36.041Z,92.42
2023-05-10T00:30:03.845Z,92.64
2023-05-10T00:32:31.885Z,92.12
2023-05-10T00:34:59.649Z,91.48
2023-05-10T00:37:28.201Z,91.36
2023-05-10T00:39:56.503Z,91.73
2023-05-10T00:42:24.308Z,92.20
2023-05-10T00:44:54.211Z,92.37
2023-05-10T00:47:22.013Z,92.91
2023-05-10T00:49:49.710Z,92.76
2023-05-10T00:52:17.415Z,93.55
2023-05-10T00:54:45.142Z,93.88
2023-05-10T00:57:12.695Z,94.42
2023-05-10T00:59:40.900Z,94.82
2023-05-10T01:02:08.447Z,94.87
2023-05-10T01:04:36.553Z,94.90
2023-05-10T01:07:04.782Z,94.68
2023-05-10T01:09:33.909Z,94.36
2023-05-10T01:12:02.897Z,94.85
2023-05-10T01:14:31.838Z,95.02
2023-05-10T01:16:59.886Z,95.65
2023-05-10T01:19:30.705Z,95.28
2023-05-10T01:22:32.394Z,95.40
2023-05-10T01:24:59.887Z,94.98
2023-05-10T01:27:39.677Z,94.98
2023-05-10T01:30:24.985Z,95.37
2023-05-10T01:33:01.581Z,96.15
2023-05-10T01:35:35.815Z,95.97
2023-05-10T01:38:23.790Z,96.20
2023-05-10T01:41:02.082Z,95.77
2023-05-10T01:43:34.594Z,96.98
2023-05-10T01:46:11.582Z,96.73
2023-05-10T01:48:48.006Z,96.77
2023-05-10T01:51:21.550Z,97.76
2023-05-10T01:53:50.686Z,98.33
2023-05-10T01:56:25.213Z,98.95
2023-05-10T01:58:54.145Z,99.08
2023-05-10T02:01:23.348Z,99.72
2023-05-10T02:03:53.066Z,100.00
2023-05-10T02:06:23.393Z,100.00
2023-05-10T02:08:53.785Z,100.00
2023-05-10T02:11:23.563Z,100.00
2023-05-10T02:13:52.797Z,100.00
2023-05-10T02:16:26.374Z,100.00
2023-05-10T02:18:57.034Z,100.00
2023-05-10T02:21:26.101Z,100.00
2023-05-10T02:23:55.394Z,100.00
2023-05-10T02:26:26.314Z,100.00
2023-05-10T02:28:57.272Z,100.00
2023-05-10T02:31:26.170Z,100.00
2023-05-10T02:33:55.289Z,100.00
2023-05-10T02:36:26.513Z,100.00
2023-05-10T02:38:55.067Z,100.00
2023-05-10T02:41:27.377Z,100.00
2023-05-10T02:43:58.392Z,100.00
2023-05-10T02:46:26.638Z,100.00
2023-05-10T02:48:54.440Z,100.00
2023-05-10T02:51:27.465Z,100.00
2023-05-10T02:53:56.548Z,100.00
2023-05-10T02:56:32.914Z,100.00
2023-05-10T02:59:00.649Z,100.00
2023-05-10T03:01:28.607Z,100.00
2023-05-10T03:03:56.184Z,100.00
2023-05-10T03:06:23.989Z,100.00
2023-05-10T03:08:51.835Z,100.00
2023-05-10T03:11:31.659Z,100.00
2023-05-10T03:14:12.471Z,100.00
2023-05-10T03:17:08.340Z,100.00
2023-05-10T03:19:55.461Z,100.00
2023-05-10T03:22:37.525Z,100.00
2023-05-10T03:25:07.935Z,100.00
2023-05-10T03:27:40.292Z,100.00
2023-05-10T03:30:11.847Z,100.00
2023-05-10T03:32:39.928Z,100.00
2023-05-10T03:35:13.462Z,100.00
2023-05-10T03:37:41.231Z,100.00
2023-05-10T03:40:09.760Z,100.00
2023-05-10T03:42:39.322Z,100.00
2023-05-10T03:45:08.154Z,100.00
2023-05-10T03:47:36.279Z,100.00
2023-05-10T03:50:04.347Z,100.00
2023-05-10T03:52:32.997Z,100.00
2023-05-10T03:55:00.674Z,100.00
2023-05-10T03:57:28.338Z,100.00
2023-05-10T03:59:56.062Z,99.76
2023-05-10T04:02:25.546Z,100.00
2023-05-10T04:04:53.499Z,100.00
2023-05-10T04:07:21.372Z,100.00
2023-05-10T04:09:49.021Z,99.87
2023-05-10T04:12:17.119Z,100.00
2023-05-10T04:14:44.769Z,100.00
2023-05-10T04:17:12.428Z,99.91
2023-05-10T04:19:40.205Z,98.39
2023-05-10T04:22:07.810Z,98.54
2023-05-10T04:24:35.984Z,95.47
2023-05-10T04:27:03.666Z,95.08
2023-05-10T04:29:31.271Z,94.98
2023-05-10T04:31:58.854Z,91.75
2023-05-10T04:34:26.618Z,92.17
2023-05-10T04:36:54.241Z,91.82
2023-05-10T04:39:22.053Z,91.64
2023-05-10T04:41:49.630Z,91.10
2023-05-10T04:44:17.172Z,89.55
2023-05-10T04:46:44.901Z,88.65
2023-05-10T04:49:12.903Z,86.71
2023-05-10T04:51:40.645Z,85.46
2023-05-10T04:54:08.292Z,83.24
2023-05-10T04:56:35.897Z,81.72
2023-05-10T04:59:03.816Z,80.88
2023-05-10T05:01:31.524Z,80.43
2023-05-10T05:03:59.664Z,77.27
2023-05-10T05:06:28.406Z,76.80
2023-05-10T05:08:56.277Z,73.82
2023-05-10T05:11:24.032Z,74.06
2023-05-10T05:13:51.670Z,74.15
2023-05-10T05:16:19.266Z,74.67
2023-05-10T05:18:46.839Z,70.32
2023-05-10T05:21:18.565Z,70.12
2023-05-10T05:23:46.312Z,69.82
2023-05-10T05:26:13.858Z,72.78
2023-05-10T05:28:41.378Z,71.61
2023-05-10T05:31:09.404Z,72.92
2023-05-10T05:33:37.729Z,73.10
2023-05-10T05:36:06.663Z,75.74
2023-05-10T05:38:34.805Z,76.95
2023-05-10T05:41:02.471Z,73.85
2023-05-10T05:43:30.226Z,76.97
2023-05-10T05:45:59.153Z,70.16
2023-05-10T05:48:26.848Z,70.08
2023-05-10T05:50:58.657Z,67.65
2023-05-10T05:53:26.508Z,62.48
2023-05-10T05:55:59.303Z,61.36
2023-05-10T05:58:27.043Z,61.31
2023-05-10T06:00:54.660Z,59.52
2023-05-10T06:03:22.644Z,59.63
2023-05-10T06:05:50.409Z,61.24
2023-05-10T06:08:17.982Z,60.01
2023-05-10T06:10:46.393Z,59.95
2023-05-10T06:13:13.998Z,58.68
2023-05-10T06:15:41.768Z,58.23
2023-05-10T06:18:10.019Z,58.63
2023-05-10T06:20:37.890Z,58.06
2023-05-10T06:23:05.578Z,56.26
2023-05-10T06:25:33.193Z,55.16
2023-05-10T06:28:01.007Z,57.07
2023-05-10T06:30:30.347Z,58.12
2023-05-10T06:32:58.259Z,58.07
2023-05-10T06:35:26.068Z,57.75
2023-05-10T06:37:53.997Z,58.61
2023-05-10T06:40:21.849Z,58.35
2023-05-10T06:42:49.399Z,58.76
2023-05-10T06:45:17.637Z,59.23
2023-05-10T06:47:45.567Z,58.39
2023-05-10T06:50:13.171Z,59.78
2023-05-10T06:52:41.031Z,59.37
2023-05-10T06:55:09.873Z,60.26
2023-05-10T06:57:37.749Z,60.33
2023-05-10T07:00:06.110Z,57.37
2023-05-10T07:02:34.008Z,57.70
2023-05-10T07:05:03.144Z,56.84
2023-05-10T07:07:32.342Z,54.66
2023-05-10T07:10:00.290Z,54.70
2023-05-10T07:12:27.905Z,55.52
2023-05-10T07:14:55.431Z,56.63
2023-05-10T07:17:23.059Z,55.08
2023-05-10T07:19:50.899Z,55.24
2023-05-10T07:22:18.520Z,53.81
2023-05-10T07:24:46.562Z,53.33
2023-05-10T07:27:14.207Z,54.84
2023-05-10T07:29:41.760Z,54.71
2023-05-10T07:32:09.422Z,56.24
2023-05-10T07:34:37.181Z,61.30
2023-05-10T07:37:04.704Z,58.53
2023-05-10T07:39:32.225Z,60.88
2023-05-10T07:41:59.796Z,59.78
2023-05-10T07:44:27.428Z,62.28
2023-05-10T07:46:54.919Z,61.47
2023-05-10T07:49:22.449Z,61.09
2023-05-10T07:51:50.336Z,63.47
2023-05-10T07:54:18.321Z,62.73
2023-05-10T07:56:48.105Z,61.12
2023-05-10T07:59:17.559Z,58.43
2023-05-10T08:01:45.722Z,57.74
2023-05-10T08:04:14.008Z,61.07
2023-05-10T08:06:41.861Z,59.68
2023-05-10T08:09:10.517Z,64.65
2023-05-10T08:11:38.338Z,64.98
2023-05-10T08:14:06.229Z,66.37
2023-05-10T08:16:33.881Z,64.04
2023-05-10T08:19:01.513Z,65.83
2023-05-10T08:21:29.378Z,64.12
2023-05-10T08:23:56.921Z,65.44
2023-05-10T08:26:24.455Z,61.73
2023-05-10T08:28:52.112Z,60.69
2023-05-10T08:31:19.834Z,62.20
2023-05-10T08:33:47.431Z,61.07
2023-05-10T08:36:20.695Z,61.42
2023-05-10T08:38:52.123Z,59.35
2023-05-10T08:41:24.944Z,58.38
2023-05-10T08:43:56.014Z,57.98
2023-05-10T08:46:24.635Z,57.04
2023-05-10T08:48:53.267Z,55.70
2023-05-10T08:51:26.373Z,56.38
2023-05-10T08:53:54.079Z,55.37
2023-05-10T08:56:21.972Z,56.12
2023-05-10T08:58:50.811Z,56.97
2023-05-10T09:01:20.541Z,55.87
2023-05-10T09:03:49.342Z,54.78
2023-05-10T09:06:17.196Z,55.11
2023-05-10T09:08:45.897Z,55.11
2023-05-10T09:11:13.895Z,54.80
2023-05-10T09:13:42.592Z,53.84
2023-05-10T09:16:21.331Z,52.17
2023-05-10T09:18:50.698Z,51.51
2023-05-10T09:21:18.482Z,50.34
2023-05-10T09:23:48.688Z,50.10
2023-05-10T09:26:17.279Z,49.03
2023-05-10T09:28:58.506Z,49.39
2023-05-10T09:31:45.952Z,49.40
2023-05-10T09:34:18.281Z,48.49
2023-05-10T09:37:03.673Z,49.35
2023-05-10T09:39:35.335Z,47.96
2023-05-10T09:42:05.879Z,45.26
2023-05-10T09:44:34.964Z,46.21
2023-05-10T09:47:03.676Z,49.35
2023-05-10T09:49:31.827Z,46.35
2023-05-10T09:52:09.126Z,47.29
2023-05-10T09:54:37.405Z,45.83
2023-05-10T09:57:04.990Z,45.91
2023-05-10T09:59:35.934Z,46.30
2023-05-10T10:02:03.948Z,46.55
2023-05-10T10:04:31.778Z,45.93
2023-05-10T10:07:05.963Z,46.76
2023-05-10T10:09:35.421Z,47.41
2023-05-10T10:12:04.846Z,45.84
2023-05-10T10:14:32.875Z,47.73
2023-05-10T10:19:35.378Z,48.95
2023-05-10T10:22:03.252Z,51.23
2023-05-10T10:24:31.265Z,56.27
2023-05-10T10:27:08.896Z,59.72
2023-05-10T10:29:53.616Z,60.54
2023-05-10T10:32:49.516Z,58.99
2023-05-10T10:35:17.545Z,55.21
2023-05-10T10:37:47.327Z,51.97
2023-05-10T10:40:41.341Z,51.63
2023-05-10T10:43:27.810Z,50.47
2023-05-10T10:46:16.414Z,47.65
2023-05-10T10:49:09.019Z,47.53
2023-05-10T10:51:40.658Z,47.72
2023-05-10T10:54:11.687Z,47.16
2023-05-10T10:56:39.433Z,46.90
2023-05-10T10:59:07.037Z,46.74
2023-05-10T11:01:36.513Z,45.79
2023-05-10T11:04:04.281Z,44.25
2023-05-10T11:06:33.590Z,45.14
2023-05-10T11:09:08.305Z,45.44
2023-05-10T11:11:37.470Z,44.43
2023-05-10T11:14:07.282Z,43.44
2023-05-10T11:16:45.638Z,42.86
2023-05-10T11:19:17.716Z,42.80
2023-05-10T11:22:06.479Z,42.86
2023-05-10T11:24:36.901Z,43.24
2023-05-10T11:27:04.688Z,44.41
2023-05-10T11:29:32.817Z,46.30
2023-05-10T11:32:01.129Z,48.81
2023-05-10T11:34:31.475Z,51.54
2023-05-10T11:36:59.497Z,52.29
2023-05-10T11:39:31.286Z,52.12
2023-05-10T11:41:59.413Z,52.74
2023-05-10T11:44:33.692Z,53.05
2023-05-10T11:47:04.441Z,55.09
2023-05-10T11:49:32.284Z,55.79
2023-05-10T11:52:09.686Z,52.51
2023-05-10T11:54:37.517Z,52.44
2023-05-10T11:57:05.345Z,49.42
2023-05-10T11:59:32.933Z,50.03
2023-05-10T12:02:00.981Z,48.76
2023-05-10T12:04:30.870Z,48.63
2023-05-10T12:06:58.759Z,44.95
2023-05-10T12:09:39.748Z,43.33
2023-05-10T12:12:11.898Z,44.03
2023-05-10T12:14:39.634Z,42.89
2023-05-10T12:17:07.137Z,43.09
2023-05-10T12:19:40.750Z,43.47
2023-05-10T12:22:08.395Z,43.39
2023-05-10T12:24:39.076Z,42.89
2023-05-10T12:27:09.254Z,43.07
2023-05-10T12:29:37.250Z,43.05
2023-05-10T12:32:05.022Z,43.58
2023-05-10T12:34:34.268Z,44.50
2023-05-10T12:37:02.780Z,44.93
2023-05-10T12:39:44.000Z,49.03
2023-05-10T12:42:12.029Z,49.43
2023-05-10T12:44:40.265Z,52.28
2023-05-10T12:47:07.928Z,53.05
2023-05-10T12:49:35.516Z,54.12
2023-05-10T12:52:03.144Z,55.70
2023-05-10T12:54:30.953Z,56.15
2023-05-10T12:56:58.673Z,55.70
2023-05-10T12:59:26.183Z,55.91
2023-05-10T13:01:53.769Z,56.17
2023-05-10T13:04:21.331Z,54.89
2023-05-10T13:06:48.849Z,54.69
2023-05-10T13:09:16.466Z,54.98
2023-05-10T13:11:44.209Z,56.88
2023-05-10T13:14:11.894Z,58.66
2023-05-10T13:16:39.541Z,59.19
2023-05-10T13:19:07.229Z,58.70
2023-05-10T13:21:34.723Z,60.00
2023-05-10T13:24:02.575Z,60.91
2023-05-10T13:26:30.982Z,60.46
2023-05-10T13:28:58.550Z,58.02
2023-05-10T13:31:26.300Z,57.48
2023-05-10T13:33:54.071Z,57.67
2023-05-10T13:36:21.874Z,57.60
2023-05-10T13:38:49.470Z,56.26
2023-05-10T13:41:17.107Z,55.57
2023-05-10T13:43:44.838Z,54.36
2023-05-10T13:46:12.632Z,54.40
2023-05-10T13:48:40.298Z,53.10
2023-05-10T13:51:08.007Z,51.04
2023-05-10T13:53:35.957Z,49.63
2023-05-10T13:56:04.045Z,49.07
2023-05-10T13:58:31.710Z,49.03
2023-05-10T14:00:59.444Z,47.54
2023-05-10T14:03:27.192Z,47.86
2023-05-10T14:05:55.057Z,49.29
2023-05-10T14:08:22.790Z,48.88
2023-05-10T14:10:51.814Z,47.41
2023-05-10T14:13:19.599Z,47.28
2023-05-10T14:15:47.238Z,46.96
2023-05-10T14:18:15.412Z,46.06
2023-05-10T14:20:43.010Z,45.76
2023-05-10T14:23:11.952Z,45.96
2023-05-10T14:25:41.851Z,44.53
2023-05-10T14:28:09.518Z,44.29
2023-05-10T14:30:37.574Z,44.22
2023-05-10T14:33:05.273Z,44.01
2023-05-10T14:35:33.021Z,44.01
2023-05-10T14:38:00.551Z,44.29
2023-05-10T14:40:28.114Z,44.31
2023-05-10T14:42:55.731Z,44.48
2023-05-10T14:45:24.056Z,44.38
2023-05-10T14:47:51.822Z,44.11
2023-05-10T14:50:35.099Z,44.87
2023-05-10T14:53:05.175Z,45.33
2023-05-10T14:55:33.843Z,44.85
2023-05-10T14:58:01.449Z,44.77
2023-05-10T15:00:30.680Z,44.73
2023-05-10T15:02:58.873Z,42.70
2023-05-10T15:05:27.243Z,43.11
2023-05-10T15:07:55.612Z,42.60
2023-05-10T15:10:23.628Z,42.51
2023-05-10T15:12:51.562Z,41.63
2023-05-10T15:15:19.407Z,42.82
2023-05-10T15:17:48.834Z,41.85
2023-05-10T15:20:16.742Z,42.58
2023-05-10T15:22:44.442Z,42.77
2023-05-10T15:25:11.987Z,43.07
2023-05-10T15:27:39.663Z,42.99
2023-05-10T15:30:08.380Z,43.84
2023-05-10T15:32:36.294Z,43.80
2023-05-10T15:35:04.623Z,45.85
2023-05-10T15:37:32.385Z,47.08
2023-05-10T15:40:04.775Z,47.88
2023-05-10T15:42:33.570Z,47.44
2023-05-10T15:45:01.216Z,45.56
2023-05-10T15:47:31.229Z,45.17
2023-05-10T15:49:58.728Z,45.51
2023-05-10T15:52:26.250Z,44.25
2023-05-10T15:54:54.023Z,44.10
2023-05-10T15:57:21.591Z,45.23
2023-05-10T15:59:49.452Z,47.31
2023-05-10T16:02:19.396Z,46.85
2023-05-10T16:04:47.196Z,46.81
2023-05-10T16:07:14.763Z,47.29
2023-05-10T16:09:42.247Z,46.80
2023-05-10T16:12:09.751Z,46.40
2023-05-10T16:14:37.471Z,48.04
2023-05-10T16:17:05.123Z,47.89
2023-05-10T16:19:32.918Z,45.84
2023-05-10T16:22:00.648Z,45.11
2023-05-10T16:24:28.187Z,45.16
2023-05-10T16:26:55.697Z,44.57
2023-05-10T16:29:23.225Z,45.30
2023-05-10T16:31:50.733Z,45.96
2023-05-10T16:34:18.177Z,47.50
2023-05-10T16:36:45.734Z,49.18
2023-05-10T16:39:13.201Z,50.10
2023-05-10T16:41:40.772Z,50.72
2023-05-10T16:44:08.329Z,51.27
2023-05-10T16:46:36.654Z,52.20
2023-05-10T16:49:04.236Z,52.10
2023-05-10T16:51:31.809Z,52.47
2023-05-10T16:53:59.321Z,53.48
2023-05-10T16:56:26.831Z,54.51
2023-05-10T16:58:54.466Z,54.75
2023-05-10T17:01:23.254Z,55.17
2023-05-10T17:03:52.810Z,54.65
2023-05-10T17:06:20.474Z,55.89
2023-05-10T17:08:48.020Z,56.48
2023-05-10T17:11:15.594Z,56.68
2023-05-10T17:13:43.132Z,57.72
2023-05-10T17:16:11.073Z,58.34
2023-05-10T17:18:38.950Z,57.77
2023-05-10T17:21:06.570Z,59.97
2023-05-10T17:23:34.565Z,59.84
2023-05-10T17:26:04.657Z,59.77
2023-05-10T17:28:32.666Z,60.11
2023-05-10T17:31:00.547Z,61.39
2023-05-10T17:33:28.034Z,62.36
2023-05-10T17:35:56.396Z,62.03
2023-05-10T17:38:23.935Z,62.03
2023-05-10T17:40:51.586Z,62.13
2023-05-10T17:43:20.653Z,63.07
2023-05-10T17:45:49.771Z,62.63
2023-05-10T17:48:17.466Z,61.70
2023-05-10T17:50:45.106Z,63.59
2023-05-10T17:53:12.664Z,64.05
2023-05-10T17:55:41.659Z,61.70
2023-05-10T17:58:11.476Z,57.69
2023-05-10T18:00:39.572Z,56.87
2023-05-10T18:03:07.147Z,56.58
2023-05-10T18:05:37.333Z,56.14
2023-05-10T18:08:06.098Z,56.12
2023-05-10T18:10:33.947Z,55.72
2023-05-10T18:13:05.023Z,55.54
2023-05-10T18:15:34.625Z,55.69
2023-05-10T18:18:04.301Z,55.83
2023-05-10T18:20:32.190Z,55.70
2023-05-10T18:22:59.691Z,55.96
2023-05-10T18:25:27.430Z,55.66
2023-05-10T18:27:54.998Z,56.12
2023-05-10T18:30:22.756Z,56.69
2023-05-10T18:32:50.355Z,58.47
2023-05-10T18:35:18.027Z,60.19
2023-05-10T18:37:45.727Z,61.86
2023-05-10T18:40:14.733Z,62.87
2023-05-10T18:42:42.455Z,63.07
2023-05-10T18:45:10.181Z,63.53
2023-05-10T18:47:37.898Z,63.98
2023-05-10T18:50:06.516Z,64.26
2023-05-10T18:52:36.857Z,64.90
2023-05-10T18:55:04.783Z,65.46
2023-05-10T18:57:32.605Z,64.79
2023-05-10T19:00:00.223Z,64.81
2023-05-10T19:02:27.988Z,63.31
2023-05-10T19:04:58.866Z,62.00
2023-05-10T19:07:26.526Z,62.13
2023-05-10T19:09:54.085Z,62.27
2023-05-10T19:12:21.528Z,61.72
2023-05-10T19:14:50.489Z,62.13
2023-05-10T19:17:17.992Z,62.11
2023-05-10T19:19:45.717Z,61.75
2023-05-10T19:22:13.498Z,61.59
2023-05-10T19:24:41.076Z,60.72
2023-05-10T19:27:08.881Z,61.48
2023-05-10T19:29:36.765Z,61.45
2023-05-10T19:32:05.202Z,59.90
2023-05-10T19:34:32.917Z,59.89
2023-05-10T19:37:00.446Z,59.92
2023-05-10T19:39:28.118Z,61.06
2023-05-10T19:41:55.666Z,60.93
2023-05-10T19:44:23.943Z,61.30
2023-05-10T19:46:51.581Z,62.17
2023-05-10T19:49:20.272Z,62.22
2023-05-10T19:51:47.837Z,60.93
2023-05-10T19:54:15.312Z,61.42
2023-05-10T19:56:42.874Z,62.09
2023-05-10T19:59:10.356Z,60.95
2023-05-10T20:01:38.228Z,61.27
2023-05-10T20:04:06.097Z,61.82
2023-05-10T20:06:33.924Z,62.48
2023-05-10T20:09:01.449Z,62.14
2023-05-10T20:11:29.154Z,62.19
2023-05-10T20:13:57.074Z,62.53
2023-05-10T20:16:26.617Z,62.64
2023-05-10T20:18:54.768Z,61.41
2023-05-10T20:21:23.936Z,62.44
2023-05-10T20:23:51.458Z,63.99
2023-05-10T20:26:19.049Z,63.38
2023-05-10T20:28:46.508Z,62.60
2023-05-10T20:31:14.064Z,62.94
2023-05-10T20:33:41.751Z,63.19
2023-05-10T20:36:09.737Z,63.16
2023-05-10T20:38:37.325Z,63.03
2023-05-10T20:41:04.840Z,63.79
2023-05-10T20:43:32.649Z,64.19
2023-05-10T20:46:05.442Z,64.50
2023-05-10T20:48:33.322Z,66.11
2023-05-10T20:51:02.276Z,67.01
2023-05-10T20:53:30.082Z,67.26
2023-05-10T20:55:57.599Z,66.82
2023-05-10T20:58:25.127Z,68.00
2023-05-10T21:00:52.584Z,68.12
2023-05-10T21:07:57.026Z,70.34
2023-05-10T21:10:28.297Z,69.55
2023-05-10T21:12:56.208Z,68.04
2023-05-10T21:15:24.565Z,68.17
2023-05-10T21:17:54.072Z,68.14
2023-05-10T21:20:21.772Z,68.07
2023-05-10T21:22:49.344Z,67.82
2023-05-10T21:25:17.998Z,66.92
2023-05-10T21:27:46.080Z,66.22
2023-05-10T21:30:13.952Z,64.78
2023-05-10T21:34:18.074Z,65.91
2023-05-10T21:36:45.663Z,66.13
2023-05-10T21:39:13.436Z,65.80
2023-05-10T21:41:41.216Z,66.47
2023-05-10T21:44:08.804Z,67.04
2023-05-10T21:46:36.440Z,66.14
2023-05-10T21:49:03.975Z,65.70
2023-05-10T21:51:32.585Z,65.60
2023-05-10T21:54:00.126Z,66.28
2023-05-10T21:56:27.615Z,65.91
2023-05-10T21:58:55.140Z,65.96
2023-05-10T22:01:22.832Z,66.50
2023-05-10T22:03:50.652Z,66.58
2023-05-10T22:06:19.563Z,66.61
2023-05-10T22:08:47.651Z,67.81
2023-05-10T22:11:15.467Z,67.96
2023-05-10T22:13:43.037Z,67.13
2023-05-10T22:16:10.713Z,67.12
2023-05-10T22:18:38.652Z,67.33
2023-05-10T22:21:06.542Z,67.55
2023-05-10T22:23:34.078Z,67.96
2023-05-10T22:26:02.714Z,67.15
2023-05-10T22:28:30.601Z,67.52
2023-05-10T22:30:58.193Z,67.46
2023-05-10T22:33:25.834Z,66.69
2023-05-10T22:35:53.593Z,67.03
2023-05-10T22:38:21.550Z,67.27
2023-05-10T22:40:49.313Z,66.87
2023-05-10T22:43:17.638Z,66.69
2023-05-10T22:45:45.388Z,66.14
2023-05-10T22:48:14.737Z,67.68
2023-05-10T22:50:42.482Z,67.35
2023-05-10T22:53:10.854Z,67.12
2023-05-10T22:55:38.500Z,67.65
2023-05-10T22:58:06.870Z,67.79
2023-05-10T23:00:34.828Z,67.33
2023-05-10T23:03:02.495Z,67.94
2023-05-10T23:05:30.728Z,68.99
2023-05-10T23:07:58.662Z,67.94
2023-05-10T23:10:27.675Z,67.55
2023-05-10T23:12:56.246Z,67.58
2023-05-10T23:15:24.029Z,68.04
2023-05-10T23:17:51.618Z,69.37
2023-05-10T23:20:19.290Z,69.98
2023-05-10T23:22:47.338Z,70.96
2023-05-10T23:25:14.830Z,71.32
2023-05-10T23:27:42.778Z,70.29
2023-05-10T23:30:10.957Z,71.33
2023-05-10T23:32:39.191Z,73.50
2023-05-10T23:35:07.527Z,73.21
2023-05-10T23:37:36.210Z,73.80
2023-05-10T23:40:04.490Z,74.86
2023-05-10T23:42:32.937Z,75.58
2023-05-10T23:45:00.756Z,74.72
2023-05-10T23:47:28.394Z,76.76
2023-05-10T23:49:56.023Z,76.69
2023-05-10T23:52:25.139Z,77.57
2023-05-10T23:54:53.744Z,76.08
2023-05-10T23:57:21.562Z,79.41
2023-05-10T23:59:49.172Z,79.92
